• Join FlightAware (Why Join?)
  • Login
  • US Flag 
03:37PM EDT


 

Airport Tracker/Info


-or-


 

Live Flight TrackerFlight Track Log ✈ OPT452 ✈ 08-Apr-2013 ✈ KOMA - KIXD

Flight Track Log - Related Links

Times and Time Zones

All times are in EDT time to prevent confusion due to time zone crossing. See the OPT452 flight status page for this flight to view local times or setup timezone preferences in your user account.

Time Position Orientation Groundspeed Altitude Reporting Facility
EDT Latitude Longitude Course Direction KTS MPH feet Rate Location/Type
04:25PM 41.2947 -95.8864 140° Southeast 160 184 1,800  Level Minneapolis Center
04:25PM 41.2631 -95.8511 140° Southeast 223 257 3,400 2,460 Climbing Minneapolis Center
04:26PM 41.2317 -95.8108 136° Southeast 227 261 5,200 2,640 Climbing Minneapolis Center
04:27PM 41.1769 -95.7469 139° Southeast 243 280 7,900 2,700 Climbing Minneapolis Center
04:28PM 41.1014 -95.7206 165° South 264 304 10,800 2,700 Climbing Minneapolis Center
04:29PM 41.0272 -95.7025 170° South 271 312 13,500 2,520 Climbing Minneapolis Center
04:30PM 40.9569 -95.6853 170° South 263 303 16,100 1,680 Climbing Minneapolis Center
04:31PM 40.8814 -95.6664 169° South 268 308 17,000 420 Climbing Minneapolis Center
04:32PM 40.7664 -95.6397 170° South 340 391 17,000  Level Minneapolis Center
04:33PM 40.6736 -95.6167 169° South 341 392 17,000  Level Minneapolis Center
04:34PM 40.5842 -95.5961 170° South 332 382 17,000  Level Minneapolis Center
04:35PM 40.4981 -95.5764 170° South 320 368 17,000  Level Minneapolis Center
04:36PM 40.4133 -95.5556 169° South 313 360 17,000  Level Minneapolis Center
04:37PM 40.3300 -95.5353 169° South 308 354 17,000  Level Minneapolis Center
04:38PM 40.2444 -95.5158 170° South 309 356 17,000  Level Minneapolis Center
04:40PM 40.1456 -95.4914 169° South 304 350 17,000 -120 Level Minneapolis Center
04:41PM 40.0625 -95.4728 170° South 302 348 16,800 -1,020 Descending Minneapolis Center
04:42PM 39.9794 -95.4531 170° South 302 348 14,900 -1,800 Descending Minneapolis Center
04:43PM 39.9014 -95.4356 170° South 293 337 13,200 -1,620 Descending Minneapolis Center
04:43PM 39.8575 -95.4231 168° South 263 303 12,200 -1,080 Descending Kansas City Center
04:44PM 39.7906 -95.3819 155° Southeast 236 272 11,400 -1,080 Descending Kansas City Center
04:45PM 39.7325 -95.3433 153° Southeast 243 280 10,000 -720 Descending Kansas City Center
04:46PM 39.6686 -95.3047 155° Southeast 222 255 10,000  Level Kansas City Center
04:47PM 39.6192 -95.2719 153° Southeast 215 247 10,000  Level Kansas City Center
04:48PM 39.5542 -95.2306 154° Southeast 267 307 10,000 -120 Level Kansas City Center
04:50PM 39.4744 -95.1806 154° Southeast 281 323 9,800 -840 Descending Kansas City Center
04:51PM 39.4100 -95.1408 155° Southeast 269 310 8,400 -1,560 Descending Kansas City Center
04:52PM 39.3364 -95.0944 154° Southeast 260 299 6,700 -1,620 Descending Kansas City Center
04:53PM 39.2761 -95.0547 153° Southeast 252 290 5,200 -1,260 Descending Kansas City Center
04:54PM 39.2189 -95.0192 154° Southeast 236 272 4,100 -1,080 Descending Kansas City Center
04:55PM 39.1653 -94.9842 153° Southeast 192 221 3,000 -540 Descending Kansas City Center
04:56PM 39.1175 -94.9539 154° Southeast 197 227 3,000  Level Kansas City Center
04:57PM 39.0667 -94.9222 154° Southeast 182 209 3,000  Level Kansas City Center
04:58PM 39.0228 -94.8939 153° Southeast 184 212 3,000 -120 Level Kansas City Center
04:59PM 38.9628 -94.8917 178° South 196 226 2,800 -240 Descending Kansas City Center
05:00PM 38.9119 -94.8906 179° South 190 219 2,600 -660 Descending Kansas City Center
05:01PM 38.8597 -94.8911 180° South 165 190 1,500 -780 Descending Kansas City Center
05:02PM 38.8294 -94.8911 180° South 133 153 1,100 -420 Descending Kansas City Center